Terminal Aerodrome Forecast
Issued by NWS

Home | Current Version | Previous Version | Text Only | Print | Product List | Glossary Off
Versions: 1 2 3 4 5 6 7 8 9 10 11 12 13 14 15 16 17 18

000
FTUS43 KABR 280522
TAFPIR
TAF
KPIR 280522Z 2806/2906 VRB03KT P6SM SKC
      TEMPO 2806/2808 3SM BR SKC
     FM280800 VRB03KT 1SM BR SKC
     FM281000 VRB03KT 1/2SM FG BKN002
     FM281400 18006KT P6SM SKC=

USA.gov is the U.S. government's official web portal to all federal, state and local government web resources and services.